createdAt,value
2023-05-16T00:02:11.209Z,8.80
2023-05-16T00:04:39.164Z,10.25
2023-05-16T00:07:07.094Z,8.98
2023-05-16T00:09:34.847Z,12.68
2023-05-16T00:12:02.638Z,9.90
2023-05-16T00:14:31.839Z,8.88
2023-05-16T00:16:59.696Z,10.40
2023-05-16T00:19:28.056Z,10.93
2023-05-16T00:21:56.080Z,9.40
2023-05-16T00:24:23.871Z,9.30
2023-05-16T00:26:51.566Z,12.00
2023-05-16T00:29:19.649Z,11.40
2023-05-16T00:31:48.795Z,5.88
2023-05-16T00:34:16.683Z,11.70
2023-05-16T00:36:45.421Z,7.50
2023-05-16T00:39:13.308Z,8.65
2023-05-16T00:41:41.183Z,13.40
2023-05-16T00:44:08.978Z,8.57
2023-05-16T00:46:37.707Z,9.25
2023-05-16T00:49:07.010Z,9.45
2023-05-16T00:51:35.331Z,13.65
2023-05-16T00:54:04.219Z,17.25
2023-05-16T00:56:32.082Z,13.43
2023-05-16T00:59:00.226Z,15.52
2023-05-16T01:01:29.617Z,16.30
2023-05-16T01:03:57.925Z,16.20
2023-05-16T01:06:27.622Z,16.70
2023-05-16T01:08:55.416Z,17.05
2023-05-16T01:11:28.297Z,16.02
2023-05-16T01:14:08.300Z,14.52
2023-05-16T01:16:41.842Z,15.05
2023-05-16T01:19:22.340Z,18.98
2023-05-16T01:22:05.554Z,22.23
2023-05-16T01:24:41.525Z,17.90
2023-05-16T01:27:13.005Z,14.57
2023-05-16T01:29:40.812Z,16.35
2023-05-16T01:32:09.467Z,18.73
2023-05-16T01:34:37.287Z,19.98
2023-05-16T01:37:14.809Z,19.83
2023-05-16T01:39:49.547Z,26.73
2023-05-16T01:42:20.389Z,13.38
2023-05-16T01:44:55.413Z,13.68
2023-05-16T01:47:27.674Z,13.23
2023-05-16T01:50:01.348Z,12.38
2023-05-16T01:52:33.248Z,13.23
2023-05-16T01:55:02.036Z,11.63
2023-05-16T01:57:31.784Z,15.23
2023-05-16T01:59:59.852Z,16.95
2023-05-16T02:02:27.573Z,18.15
2023-05-16T02:04:55.403Z,20.10
2023-05-16T02:07:23.652Z,21.75
2023-05-16T02:09:51.572Z,26.15
2023-05-16T02:12:19.309Z,25.35
2023-05-16T02:14:48.373Z,21.90
2023-05-16T02:17:16.167Z,21.75
2023-05-16T02:19:44.008Z,22.30
2023-05-16T02:22:12.559Z,21.95
2023-05-16T02:24:40.526Z,19.42
2023-05-16T02:27:08.340Z,25.50
2023-05-16T02:29:36.248Z,23.48
2023-05-16T02:32:05.870Z,23.77
2023-05-16T02:34:33.613Z,22.80
2023-05-16T02:37:01.725Z,28.13
2023-05-16T02:39:30.059Z,21.00
2023-05-16T02:41:57.831Z,27.08
2023-05-16T02:44:25.692Z,23.10
2023-05-16T02:46:53.423Z,25.02
2023-05-16T02:49:22.556Z,21.15
2023-05-16T02:51:50.472Z,27.30
2023-05-16T02:54:18.340Z,25.08
2023-05-16T02:56:46.217Z,26.75
2023-05-16T02:59:14.001Z,29.17
2023-05-16T03:01:41.719Z,23.63
2023-05-16T03:04:09.630Z,26.55
2023-05-16T03:06:38.856Z,32.50
2023-05-16T03:09:07.848Z,33.83
2023-05-16T03:11:36.885Z,33.00
2023-05-16T03:14:05.781Z,30.52
2023-05-16T03:16:33.674Z,31.25
2023-05-16T03:19:01.552Z,32.42
2023-05-16T03:21:29.407Z,30.48
2023-05-16T03:23:58.679Z,30.98
2023-05-16T03:26:26.556Z,26.98
2023-05-16T03:28:54.546Z,26.95
2023-05-16T03:31:22.751Z,27.33
2023-05-16T03:33:50.585Z,25.65
2023-05-16T03:36:18.407Z,31.17
2023-05-16T03:38:46.292Z,29.30
2023-05-16T03:41:15.466Z,29.67
2023-05-16T03:43:43.176Z,32.78
2023-05-16T03:46:10.995Z,31.98
2023-05-16T03:48:38.784Z,32.88
2023-05-16T03:51:06.987Z,31.75
2023-05-16T03:53:34.739Z,29.55
2023-05-16T03:56:02.529Z,26.77
2023-05-16T03:58:31.682Z,31.25
2023-05-16T04:00:59.832Z,30.02
2023-05-16T04:03:28.737Z,28.67
2023-05-16T04:05:57.213Z,31.60
2023-05-16T04:08:25.668Z,28.33
2023-05-16T04:10:53.413Z,29.35
2023-05-16T04:13:21.267Z,27.05
2023-05-16T04:15:50.525Z,24.23
2023-05-16T04:18:19.489Z,29.50
2023-05-16T04:20:47.586Z,22.85
2023-05-16T04:23:15.392Z,26.65
2023-05-16T04:25:43.269Z,23.95
2023-05-16T04:28:11.097Z,24.38
2023-05-16T04:30:38.863Z,24.58
2023-05-16T04:33:08.441Z,25.65
2023-05-16T04:35:37.698Z,22.55
2023-05-16T04:38:05.639Z,19.77
2023-05-16T04:40:33.862Z,19.90
2023-05-16T04:43:01.635Z,22.08
2023-05-16T04:45:29.569Z,18.30
2023-05-16T04:47:57.725Z,19.27
2023-05-16T04:50:26.892Z,18.83
2023-05-16T04:52:56.407Z,24.38
2023-05-16T04:55:24.438Z,22.95
2023-05-16T04:57:52.207Z,20.25
2023-05-16T05:00:20.621Z,19.73
2023-05-16T05:02:48.394Z,20.10
2023-05-16T05:05:16.209Z,22.15
2023-05-16T05:07:45.476Z,18.10
2023-05-16T05:10:13.360Z,17.23
2023-05-16T05:12:41.031Z,21.05
2023-05-16T05:15:09.296Z,24.08
2023-05-16T05:17:37.828Z,18.08
2023-05-16T05:20:08.668Z,21.35
2023-05-16T05:22:36.426Z,20.98
2023-05-16T05:25:06.497Z,22.00
2023-05-16T05:27:34.468Z,20.08
2023-05-16T05:30:02.227Z,16.45
2023-05-16T05:32:30.036Z,16.67
2023-05-16T05:34:57.848Z,22.67
2023-05-16T05:37:25.668Z,19.58
2023-05-16T05:39:53.459Z,21.02
2023-05-16T05:42:22.752Z,18.63
2023-05-16T05:44:50.613Z,18.65
2023-05-16T05:47:18.491Z,17.90
2023-05-16T05:49:46.277Z,18.48
2023-05-16T05:52:14.429Z,16.90
2023-05-16T05:54:42.263Z,15.20
2023-05-16T05:57:10.067Z,14.77
2023-05-16T05:59:39.189Z,18.33
2023-05-16T06:02:07.450Z,18.83
2023-05-16T06:04:35.384Z,17.00
2023-05-16T06:07:03.180Z,14.25
2023-05-16T06:09:31.032Z,18.08
2023-05-16T06:11:58.860Z,19.48
2023-05-16T06:14:26.933Z,18.02
2023-05-16T06:16:56.403Z,17.45
2023-05-16T06:19:24.998Z,16.80
2023-05-16T06:21:52.968Z,15.20
2023-05-16T06:24:20.704Z,18.75
2023-05-16T06:26:51.599Z,16.73
2023-05-16T06:29:19.520Z,16.75
2023-05-16T06:31:48.096Z,17.13
2023-05-16T06:34:17.217Z,16.42
2023-05-16T06:36:45.373Z,15.35
2023-05-16T06:39:13.198Z,14.00
2023-05-16T06:41:40.985Z,16.75
2023-05-16T06:44:09.119Z,22.55
2023-05-16T06:46:37.259Z,16.90
2023-05-16T06:49:06.913Z,16.88
2023-05-16T06:51:36.093Z,15.70
2023-05-16T06:54:04.226Z,19.20
2023-05-16T06:56:32.522Z,20.55
2023-05-16T06:59:01.787Z,17.42
2023-05-16T07:01:29.634Z,19.15
2023-05-16T07:03:57.523Z,19.42
2023-05-16T07:06:25.489Z,16.23
2023-05-16T07:08:54.641Z,18.27
2023-05-16T07:11:22.500Z,17.95
2023-05-16T07:13:50.226Z,18.60
2023-05-16T07:16:18.390Z,20.00
2023-05-16T07:18:46.351Z,19.00
2023-05-16T07:21:14.212Z,20.58
2023-05-16T07:23:42.147Z,27.67
2023-05-16T07:26:11.303Z,22.20
2023-05-16T07:28:39.149Z,19.67
2023-05-16T07:31:08.332Z,27.08
2023-05-16T07:33:36.402Z,24.52
2023-05-16T07:36:16.091Z,23.45
2023-05-16T07:38:45.182Z,22.60
2023-05-16T07:41:14.522Z,22.77
2023-05-16T07:43:42.361Z,28.98
2023-05-16T07:46:10.257Z,30.65
2023-05-16T07:48:38.173Z,26.25
2023-05-16T07:51:05.968Z,28.08
2023-05-16T07:53:33.750Z,32.90
2023-05-16T07:56:01.538Z,26.85
2023-05-16T07:58:30.947Z,33.47
2023-05-16T08:00:58.969Z,32.80
2023-05-16T08:03:27.169Z,30.77
2023-05-16T08:05:55.100Z,29.83
2023-05-16T08:08:22.896Z,29.92
2023-05-16T08:10:50.921Z,35.35
2023-05-16T08:13:18.745Z,27.88
2023-05-16T08:15:47.933Z,27.27
2023-05-16T08:18:17.172Z,29.63
2023-05-16T08:20:45.748Z,26.40
2023-05-16T08:23:13.864Z,31.45
2023-05-16T08:25:41.915Z,31.33
2023-05-16T08:28:09.787Z,26.98
2023-05-16T08:30:37.955Z,34.65
2023-05-16T08:33:09.287Z,33.15
2023-05-16T08:35:37.135Z,28.05
2023-05-16T08:38:05.018Z,39.70
2023-05-16T08:40:33.316Z,32.25
2023-05-16T08:43:01.282Z,30.90
2023-05-16T08:45:31.399Z,33.72
2023-05-16T08:48:03.724Z,35.25
2023-05-16T08:50:33.763Z,34.40
2023-05-16T08:53:07.804Z,35.40
2023-05-16T08:55:36.317Z,40.55
2023-05-16T08:58:05.322Z,36.33
2023-05-16T09:00:33.123Z,35.90
2023-05-16T09:03:02.127Z,35.90
2023-05-16T09:05:32.611Z,38.35
2023-05-16T09:08:00.573Z,37.50
2023-05-16T09:10:28.338Z,31.08
2023-05-16T09:12:56.281Z,38.22
2023-05-16T09:15:24.073Z,39.15
2023-05-16T09:17:52.664Z,39.17
2023-05-16T09:20:21.682Z,38.00
2023-05-16T09:22:56.538Z,30.33
2023-05-16T09:25:31.119Z,32.38
2023-05-16T09:28:01.905Z,30.38
2023-05-16T09:30:31.716Z,30.92
2023-05-16T09:33:00.253Z,36.53
2023-05-16T09:38:00.433Z,32.47
2023-05-16T09:40:28.174Z,34.28
2023-05-16T09:43:05.472Z,41.78
2023-05-16T09:45:34.222Z,39.88
2023-05-16T09:48:06.861Z,39.72
2023-05-16T09:50:35.802Z,46.75
2023-05-16T09:53:05.460Z,56.22
2023-05-16T09:55:33.790Z,72.68
2023-05-16T09:58:01.957Z,67.43
2023-05-16T10:00:34.450Z,68.00
2023-05-16T10:03:05.632Z,44.80
2023-05-16T10:05:34.738Z,35.78
2023-05-16T10:08:06.426Z,32.35
2023-05-16T10:10:38.334Z,31.13
2023-05-16T10:13:08.708Z,31.60
2023-05-16T10:15:38.884Z,34.38
2023-05-16T10:18:12.302Z,35.97
2023-05-16T10:20:43.444Z,39.10
2023-05-16T10:23:17.959Z,45.55
2023-05-16T10:25:47.373Z,45.25
2023-05-16T10:28:16.339Z,44.50
2023-05-16T10:30:45.517Z,53.30
2023-05-16T10:33:15.104Z,49.33
2023-05-16T10:35:43.453Z,51.95
2023-05-16T10:38:15.150Z,55.80
2023-05-16T10:40:43.829Z,69.30
2023-05-16T10:43:11.701Z,68.15
2023-05-16T10:45:42.103Z,76.00
2023-05-16T10:48:13.813Z,85.10
2023-05-16T10:50:44.994Z,48.17
2023-05-16T10:53:32.385Z,52.67
2023-05-16T10:56:09.331Z,43.95
2023-05-16T10:58:45.037Z,40.25
2023-05-16T11:01:17.416Z,39.05
2023-05-16T11:04:12.510Z,41.92
2023-05-16T11:06:51.180Z,49.20
2023-05-16T11:09:23.434Z,43.25
2023-05-16T11:12:00.616Z,47.90
2023-05-16T11:14:32.166Z,49.05
2023-05-16T11:17:04.996Z,54.55
2023-05-16T11:19:35.440Z,60.28
2023-05-16T11:22:16.998Z,62.53
2023-05-16T11:24:57.366Z,60.60
2023-05-16T11:27:27.945Z,67.80
2023-05-16T11:29:57.709Z,67.32
2023-05-16T11:32:26.514Z,83.13
2023-05-16T11:34:54.881Z,81.93
2023-05-16T11:37:22.917Z,77.40
2023-05-16T11:39:52.403Z,75.03
2023-05-16T11:42:20.350Z,64.07
2023-05-16T11:44:48.143Z,66.95
2023-05-16T11:47:16.067Z,68.55
2023-05-16T11:49:43.938Z,66.28
2023-05-16T11:52:11.841Z,71.57
2023-05-16T11:54:41.593Z,75.55
2023-05-16T11:57:11.276Z,80.82
2023-05-16T11:59:39.630Z,65.03
2023-05-16T12:02:09.695Z,65.72
2023-05-16T12:04:38.796Z,71.05
2023-05-16T12:07:07.067Z,64.65
2023-05-16T12:09:34.876Z,68.15
2023-05-16T12:12:06.933Z,60.53
2023-05-16T12:17:05.567Z,58.25
2023-05-16T12:19:33.643Z,61.70
2023-05-16T12:22:01.495Z,65.68
2023-05-16T12:24:33.069Z,56.65
2023-05-16T12:27:00.969Z,55.03
2023-05-16T12:29:28.830Z,56.15
2023-05-16T12:31:58.068Z,51.42
2023-05-16T12:34:30.815Z,51.85
2023-05-16T12:37:02.013Z,49.80
2023-05-16T12:39:38.935Z,48.13
2023-05-16T12:42:09.592Z,38.97
2023-05-16T12:44:37.377Z,33.95
2023-05-16T12:47:13.537Z,34.50
2023-05-16T12:49:46.776Z,29.98
2023-05-16T12:52:20.604Z,27.35
2023-05-16T12:54:49.509Z,28.45
2023-05-16T12:57:17.314Z,32.20
2023-05-16T12:59:45.117Z,30.27
2023-05-16T13:02:14.236Z,32.97
2023-05-16T13:04:42.006Z,29.08
2023-05-16T13:07:09.756Z,28.30
2023-05-16T13:09:37.861Z,30.60
2023-05-16T13:12:06.145Z,26.10
2023-05-16T13:14:33.973Z,28.85
2023-05-16T13:17:01.902Z,26.83
2023-05-16T13:19:31.715Z,27.73
2023-05-16T13:21:59.757Z,30.42
2023-05-16T13:24:27.672Z,27.60
2023-05-16T13:26:55.639Z,26.17
2023-05-16T13:29:23.385Z,28.52
2023-05-16T13:31:51.359Z,28.50
2023-05-16T13:34:19.136Z,33.70
2023-05-16T13:36:54.506Z,26.48
2023-05-16T13:39:23.272Z,24.75
2023-05-16T13:41:51.509Z,24.52
2023-05-16T13:44:19.372Z,26.15
2023-05-16T13:46:47.166Z,23.20
2023-05-16T13:49:15.109Z,26.27
2023-05-16T13:51:42.891Z,26.50
2023-05-16T13:54:12.018Z,31.65
2023-05-16T13:56:39.904Z,31.65
2023-05-16T13:59:09.091Z,29.80
2023-05-16T14:01:38.141Z,25.00
2023-05-16T14:04:06.568Z,29.75
2023-05-16T14:06:34.523Z,30.05
2023-05-16T14:09:03.371Z,26.08
2023-05-16T14:11:32.439Z,25.55
2023-05-16T14:14:00.342Z,27.38
2023-05-16T14:16:29.403Z,28.15
2023-05-16T14:18:57.310Z,30.52
2023-05-16T14:21:25.109Z,31.00
2023-05-16T14:23:52.894Z,25.13
2023-05-16T14:26:22.737Z,24.17
2023-05-16T14:28:52.072Z,18.42
2023-05-16T14:31:20.029Z,22.45
2023-05-16T14:33:47.845Z,20.08
2023-05-16T14:36:16.158Z,16.80
2023-05-16T14:38:44.144Z,15.45
2023-05-16T14:41:12.204Z,11.85
2023-05-16T14:43:40.015Z,13.68
2023-05-16T14:46:09.355Z,10.95
2023-05-16T14:48:37.301Z,9.38
2023-05-16T14:51:05.250Z,9.43
2023-05-16T14:53:33.163Z,11.68
2023-05-16T14:56:02.735Z,12.23
2023-05-16T14:58:31.075Z,11.73
2023-05-16T15:00:58.862Z,9.35
2023-05-16T15:03:28.049Z,11.45
2023-05-16T15:05:55.860Z,12.80
2023-05-16T15:08:23.995Z,9.77
2023-05-16T15:10:52.081Z,7.25
2023-05-16T15:13:20.231Z,11.60
2023-05-16T15:15:48.368Z,7.75
2023-05-16T15:18:16.217Z,8.55
2023-05-16T15:20:45.371Z,6.88
2023-05-16T15:23:13.170Z,6.22
2023-05-16T15:25:40.881Z,5.88
2023-05-16T15:28:08.651Z,6.20
2023-05-16T15:30:36.486Z,7.97
2023-05-16T15:33:04.686Z,7.22
2023-05-16T15:35:32.894Z,9.73
2023-05-16T15:38:02.056Z,7.28
2023-05-16T15:40:32.049Z,6.95
2023-05-16T15:42:59.833Z,5.50
2023-05-16T15:45:27.777Z,5.45
2023-05-16T15:47:55.742Z,4.68
2023-05-16T15:50:23.807Z,5.28
2023-05-16T15:52:51.610Z,6.30
2023-05-16T15:55:20.777Z,6.03
2023-05-16T15:57:48.572Z,6.30
2023-05-16T16:00:17.501Z,4.93
2023-05-16T16:02:46.257Z,4.32
2023-05-16T16:05:14.244Z,6.97
2023-05-16T16:07:42.389Z,6.20
2023-05-16T16:10:11.333Z,6.25
2023-05-16T16:12:40.615Z,5.38
2023-05-16T16:15:10.946Z,5.53
2023-05-16T16:17:38.893Z,8.18
2023-05-16T16:20:07.717Z,4.95
2023-05-16T16:22:35.517Z,4.07
2023-05-16T16:25:03.379Z,4.18
2023-05-16T16:27:31.163Z,3.38
2023-05-16T16:30:00.929Z,3.78
2023-05-16T16:32:28.708Z,4.15
2023-05-16T16:34:56.626Z,5.25
2023-05-16T16:37:24.375Z,4.80
2023-05-16T16:39:52.174Z,4.72
2023-05-16T16:42:20.071Z,3.95
2023-05-16T16:44:47.934Z,4.47
2023-05-16T16:47:17.075Z,4.00
2023-05-16T16:49:45.509Z,5.90
2023-05-16T16:52:13.427Z,3.25
2023-05-16T16:54:41.495Z,2.33
2023-05-16T16:57:09.259Z,2.58
2023-05-16T16:59:37.081Z,2.25
2023-05-16T17:02:04.999Z,3.20
2023-05-16T17:04:35.549Z,5.38
2023-05-16T17:07:03.370Z,2.97
2023-05-16T17:09:31.381Z,2.58
2023-05-16T17:12:04.536Z,3.47
2023-05-16T17:14:32.423Z,3.45
2023-05-16T17:17:00.243Z,6.45
2023-05-16T17:19:28.247Z,4.00
2023-05-16T17:21:57.589Z,4.25
2023-05-16T17:24:25.369Z,4.00
2023-05-16T17:26:53.268Z,3.92
2023-05-16T17:29:21.164Z,10.63
2023-05-16T17:31:48.912Z,5.25
2023-05-16T17:34:16.939Z,5.35
2023-05-16T17:36:45.465Z,4.72
2023-05-16T17:39:15.097Z,5.35
2023-05-16T17:41:43.218Z,10.40
2023-05-16T17:44:10.961Z,4.10
2023-05-16T17:46:39.434Z,6.45
2023-05-16T17:49:08.441Z,4.65
2023-05-16T17:51:49.765Z,4.60
2023-05-16T17:54:19.721Z,5.82
2023-05-16T17:56:47.768Z,4.25
2023-05-16T17:59:16.275Z,3.75
2023-05-16T18:01:44.481Z,4.40
2023-05-16T18:04:13.270Z,4.63
2023-05-16T18:06:41.614Z,7.30
2023-05-16T18:09:10.258Z,5.70
2023-05-16T18:11:40.565Z,3.83
2023-05-16T18:14:09.556Z,4.63
2023-05-16T18:16:37.425Z,4.32
2023-05-16T18:19:08.659Z,3.60
2023-05-16T18:21:38.253Z,4.70
2023-05-16T18:24:08.344Z,6.28
2023-05-16T18:26:36.416Z,7.22
2023-05-16T18:29:06.013Z,3.83
2023-05-16T18:31:34.102Z,5.22
2023-05-16T18:34:02.856Z,6.18
2023-05-16T18:36:30.793Z,5.72
2023-05-16T18:38:58.584Z,6.72
2023-05-16T18:41:27.024Z,5.80
2023-05-16T18:43:55.093Z,8.85
2023-05-16T18:46:24.305Z,8.88
2023-05-16T18:48:52.587Z,6.60
2023-05-16T18:51:20.878Z,7.68
2023-05-16T18:53:48.656Z,11.77
2023-05-16T18:56:16.432Z,6.25
2023-05-16T18:58:44.291Z,15.45
2023-05-16T19:01:12.177Z,12.00
2023-05-16T19:03:41.443Z,8.23
2023-05-16T19:06:09.447Z,6.30
2023-05-16T19:08:47.471Z,11.65
2023-05-16T19:11:16.856Z,9.85
2023-05-16T19:13:44.701Z,9.10
2023-05-16T19:16:12.586Z,11.68
2023-05-16T19:18:42.158Z,11.13
2023-05-16T19:21:13.050Z,12.75
2023-05-16T19:23:41.016Z,10.38
2023-05-16T19:26:08.846Z,9.48
2023-05-16T19:28:37.513Z,8.50
2023-05-16T19:31:05.247Z,8.27
2023-05-16T19:33:33.023Z,9.77
2023-05-16T19:36:03.026Z,8.75
2023-05-16T19:38:30.845Z,14.48
2023-05-16T19:40:59.808Z,10.15
2023-05-16T19:43:27.668Z,13.25
2023-05-16T19:45:55.386Z,13.68
2023-05-16T19:48:23.301Z,8.98
2023-05-16T19:50:51.972Z,12.50
2023-05-16T19:53:21.218Z,12.27
2023-05-16T19:55:49.506Z,12.57
2023-05-16T19:58:17.891Z,8.85
2023-05-16T20:00:46.976Z,12.73
2023-05-16T20:03:14.843Z,32.03
2023-05-16T20:05:42.826Z,13.93
2023-05-16T20:08:11.184Z,16.08
2023-05-16T20:10:40.823Z,8.00
2023-05-16T20:13:08.830Z,12.23
2023-05-16T20:15:36.784Z,8.57
2023-05-16T20:18:04.756Z,16.75
2023-05-16T20:20:32.562Z,9.00
2023-05-16T20:23:00.327Z,17.85
2023-05-16T20:25:28.374Z,12.27
2023-05-16T20:27:57.681Z,12.90
2023-05-16T20:30:25.755Z,12.07
2023-05-16T20:32:53.605Z,13.68
2023-05-16T20:35:21.621Z,16.33
2023-05-16T20:37:49.423Z,11.45
2023-05-16T20:40:17.216Z,8.55
2023-05-16T20:42:45.061Z,14.55
2023-05-16T20:45:14.234Z,13.55
2023-05-16T20:47:42.164Z,7.53
2023-05-16T20:50:10.622Z,8.70
2023-05-16T20:52:38.432Z,13.82
2023-05-16T20:55:07.100Z,17.63
2023-05-16T20:57:34.942Z,12.13
2023-05-16T21:00:03.286Z,10.38
2023-05-16T21:02:32.453Z,12.93
2023-05-16T21:05:06.159Z,10.23
2023-05-16T21:07:47.893Z,13.27
2023-05-16T21:10:15.777Z,13.20
2023-05-16T21:12:43.617Z,12.63
2023-05-16T21:15:11.519Z,17.02
2023-05-16T21:17:41.515Z,12.13
2023-05-16T21:20:10.307Z,13.50
2023-05-16T21:22:38.130Z,10.25
2023-05-16T21:25:06.575Z,11.52
2023-05-16T21:27:34.302Z,11.32
2023-05-16T21:30:02.168Z,10.85
2023-05-16T21:32:32.487Z,7.90
2023-05-16T21:35:04.363Z,15.93
2023-05-16T21:37:32.234Z,9.13
2023-05-16T21:40:00.072Z,9.90
2023-05-16T21:42:27.875Z,14.60
2023-05-16T21:44:55.711Z,13.63
2023-05-16T21:47:23.495Z,12.95
2023-05-16T21:49:51.314Z,10.45
2023-05-16T21:52:20.548Z,11.10
2023-05-16T21:54:51.563Z,14.27
2023-05-16T21:57:20.472Z,12.40
2023-05-16T21:59:50.759Z,10.50
2023-05-16T22:02:22.718Z,12.20
2023-05-16T22:04:51.362Z,10.48
2023-05-16T22:07:20.767Z,11.05
2023-05-16T22:09:50.931Z,8.60
2023-05-16T22:12:18.755Z,7.82
2023-05-16T22:14:46.718Z,10.18
2023-05-16T22:17:14.552Z,11.73
2023-05-16T22:19:43.152Z,9.20
2023-05-16T22:22:11.023Z,7.80
2023-05-16T22:24:40.415Z,6.50
2023-05-16T22:27:08.261Z,9.75
2023-05-16T22:29:38.865Z,8.70
2023-05-16T22:32:08.274Z,11.98
2023-05-16T22:34:36.403Z,8.98
2023-05-16T22:37:04.161Z,6.60
2023-05-16T22:39:31.906Z,11.77
2023-05-16T22:42:01.724Z,11.15
2023-05-16T22:44:29.855Z,11.27
2023-05-16T22:46:57.584Z,7.03
2023-05-16T22:49:25.439Z,8.85
2023-05-16T22:51:53.300Z,9.13
2023-05-16T22:54:21.035Z,6.32
2023-05-16T22:56:48.857Z,7.57
2023-05-16T22:59:19.616Z,4.90
2023-05-16T23:01:47.808Z,3.97
2023-05-16T23:04:16.185Z,12.13
2023-05-16T23:06:44.064Z,6.45
2023-05-16T23:09:11.838Z,9.95
2023-05-16T23:11:39.581Z,7.85
2023-05-16T23:14:07.388Z,5.55
2023-05-16T23:16:39.262Z,8.52
2023-05-16T23:19:09.293Z,8.85
2023-05-16T23:21:37.561Z,9.55
2023-05-16T23:24:05.572Z,9.95
2023-05-16T23:26:33.424Z,5.88
2023-05-16T23:29:01.188Z,9.85
2023-05-16T23:31:29.260Z,5.53
2023-05-16T23:33:58.475Z,7.70
2023-05-16T23:36:26.447Z,5.35
2023-05-16T23:38:54.262Z,7.60
2023-05-16T23:41:24.077Z,6.00
2023-05-16T23:43:52.247Z,8.80
2023-05-16T23:46:20.073Z,4.93
2023-05-16T23:48:48.113Z,7.05
2023-05-16T23:51:18.080Z,6.88
2023-05-16T23:53:45.853Z,6.57
2023-05-16T23:56:13.680Z,13.27
2023-05-16T23:58:41.452Z,5.15
